sensor_id;sensor_type;location;lat;lon;timestamp;temperature;humidity
16287;DHT22;8251;53.568;10.018;2024-01-15T00:01:09;4.20;94.90
16287;DHT22;8251;53.568;10.018;2024-01-15T00:03:35;4.20;94.90
16287;DHT22;8251;53.568;10.018;2024-01-15T00:06:03;4.20;94.90
16287;DHT22;8251;53.568;10.018;2024-01-15T00:08:29;4.20;95.00
16287;DHT22;8251;53.568;10.018;2024-01-15T00:11:03;4.20;94.90
16287;DHT22;8251;53.568;10.018;2024-01-15T00:13:31;4.20;94.90
16287;DHT22;8251;53.568;10.018;2024-01-15T00:15:58;4.20;94.80
16287;DHT22;8251;53.568;10.018;2024-01-15T00:18:25;4.20;94.90
16287;DHT22;8251;53.568;10.018;2024-01-15T00:20:54;4.20;94.90
16287;DHT22;8251;53.568;10.018;2024-01-15T00:23:22;4.10;95.10
16287;DHT22;8251;53.568;10.018;2024-01-15T00:25:50;4.10;95.30
16287;DHT22;8251;53.568;10.018;2024-01-15T00:28:19;4.10;95.40
16287;DHT22;8251;53.568;10.018;2024-01-15T00:30:47;4.10;95.40
16287;DHT22;8251;53.568;10.018;2024-01-15T00:33:13;4.10;95.50
16287;DHT22;8251;53.568;10.018;2024-01-15T00:35:40;4.10;95.50
16287;DHT22;8251;53.568;10.018;2024-01-15T00:38:07;4.10;95.40
16287;DHT22;8251;53.568;10.018;2024-01-15T00:40:34;4.10;95.40
16287;DHT22;8251;53.568;10.018;2024-01-15T00:43:01;4.10;95.40
16287;DHT22;8251;53.568;10.018;2024-01-15T00:45:29;4.10;95.40
16287;DHT22;8251;53.568;10.018;2024-01-15T00:47:56;4.10;95.50
16287;DHT22;8251;53.568;10.018;2024-01-15T00:50:25;4.00;95.50
16287;DHT22;8251;53.568;10.018;2024-01-15T00:52:52;4.00;95.50
16287;DHT22;8251;53.568;10.018;2024-01-15T00:55:20;4.00;95.60
16287;DHT22;8251;53.568;10.018;2024-01-15T00:57:46;4.10;95.60
16287;DHT22;8251;53.568;10.018;2024-01-15T01:00:14;4.00;95.60
16287;DHT22;8251;53.568;10.018;2024-01-15T01:02:44;4.00;95.60
16287;DHT22;8251;53.568;10.018;2024-01-15T01:05:11;4.00;95.60
16287;DHT22;8251;53.568;10.018;2024-01-15T01:07:38;4.10;95.50
16287;DHT22;8251;53.568;10.018;2024-01-15T01:10:06;4.00;95.50
16287;DHT22;8251;53.568;10.018;2024-01-15T01:12:32;4.10;95.50
16287;DHT22;8251;53.568;10.018;2024-01-15T01:15:00;4.10;95.40
16287;DHT22;8251;53.568;10.018;2024-01-15T01:17:28;4.20;95.30
16287;DHT22;8251;53.568;10.018;2024-01-15T01:19:57;4.20;95.20
16287;DHT22;8251;53.568;10.018;2024-01-15T01:22:24;4.20;95.10
16287;DHT22;8251;53.568;10.018;2024-01-15T01:24:51;4.20;95.10
16287;DHT22;8251;53.568;10.018;2024-01-15T01:27:17;4.10;95.10
16287;DHT22;8251;53.568;10.018;2024-01-15T01:29:44;4.10;95.20
16287;DHT22;8251;53.568;10.018;2024-01-15T01:32:11;4.20;95.10
16287;DHT22;8251;53.568;10.018;2024-01-15T01:34:40;4.20;95.10
16287;DHT22;8251;53.568;10.018;2024-01-15T01:37:09;4.30;95.10
16287;DHT22;8251;53.568;10.018;2024-01-15T01:39:38;4.30;95.00
16287;DHT22;8251;53.568;10.018;2024-01-15T01:42:05;4.20;95.00
16287;DHT22;8251;53.568;10.018;2024-01-15T01:44:32;4.20;95.20
16287;DHT22;8251;53.568;10.018;2024-01-15T01:46:59;4.20;95.10
16287;DHT22;8251;53.568;10.018;2024-01-15T01:49:27;4.20;95.20
16287;DHT22;8251;53.568;10.018;2024-01-15T01:51:57;4.20;95.30
16287;DHT22;8251;53.568;10.018;2024-01-15T01:54:26;4.20;95.30
16287;DHT22;8251;53.568;10.018;2024-01-15T01:56:53;4.20;95.40
16287;DHT22;8251;53.568;10.018;2024-01-15T01:59:23;4.20;95.40
16287;DHT22;8251;53.568;10.018;2024-01-15T02:01:50;4.30;95.20
16287;DHT22;8251;53.568;10.018;2024-01-15T02:04:17;4.30;95.20
16287;DHT22;8251;53.568;10.018;2024-01-15T02:06:44;4.30;95.20
16287;DHT22;8251;53.568;10.018;2024-01-15T02:09:12;4.30;95.20
16287;DHT22;8251;53.568;10.018;2024-01-15T02:11:43;4.30;95.20
16287;DHT22;8251;53.568;10.018;2024-01-15T02:14:10;4.30;95.20
16287;DHT22;8251;53.568;10.018;2024-01-15T02:16:38;4.40;95.20
16287;DHT22;8251;53.568;10.018;2024-01-15T02:19:06;4.50;95.10
16287;DHT22;8251;53.568;10.018;2024-01-15T02:21:33;4.30;95.10
16287;DHT22;8251;53.568;10.018;2024-01-15T02:24:01;4.30;95.20
16287;DHT22;8251;53.568;10.018;2024-01-15T02:26:28;4.30;95.20
16287;DHT22;8251;53.568;10.018;2024-01-15T02:28:57;4.30;95.30
16287;DHT22;8251;53.568;10.018;2024-01-15T02:31:24;4.30;95.40
16287;DHT22;8251;53.568;10.018;2024-01-15T02:33:51;4.40;95.50
16287;DHT22;8251;53.568;10.018;2024-01-15T02:36:19;4.40;95.50
16287;DHT22;8251;53.568;10.018;2024-01-15T02:38:47;4.50;95.40
16287;DHT22;8251;53.568;10.018;2024-01-15T02:41:18;4.50;95.40
16287;DHT22;8251;53.568;10.018;2024-01-15T02:43:45;4.50;95.20
16287;DHT22;8251;53.568;10.018;2024-01-15T02:46:12;4.40;95.60
16287;DHT22;8251;53.568;10.018;2024-01-15T02:48:39;4.40;95.30
16287;DHT22;8251;53.568;10.018;2024-01-15T02:51:05;4.40;95.30
16287;DHT22;8251;53.568;10.018;2024-01-15T02:53:32;4.40;95.50
16287;DHT22;8251;53.568;10.018;2024-01-15T02:55:59;4.50;95.50
16287;DHT22;8251;53.568;10.018;2024-01-15T02:58:27;4.50;95.50
16287;DHT22;8251;53.568;10.018;2024-01-15T03:00:54;4.60;95.50
16287;DHT22;8251;53.568;10.018;2024-01-15T03:03:21;4.50;95.40
16287;DHT22;8251;53.568;10.018;2024-01-15T03:05:50;4.50;95.10
16287;DHT22;8251;53.568;10.018;2024-01-15T03:08:18;4.50;95.40
16287;DHT22;8251;53.568;10.018;2024-01-15T03:10:45;4.50;95.50
16287;DHT22;8251;53.568;10.018;2024-01-15T03:13:13;4.50;95.40
16287;DHT22;8251;53.568;10.018;2024-01-15T03:15:43;4.50;95.50
16287;DHT22;8251;53.568;10.018;2024-01-15T03:18:11;4.50;95.40
16287;DHT22;8251;53.568;10.018;2024-01-15T03:20:38;4.60;95.40
16287;DHT22;8251;53.568;10.018;2024-01-15T03:23:04;4.60;95.40
16287;DHT22;8251;53.568;10.018;2024-01-15T03:25:31;4.60;95.50
16287;DHT22;8251;53.568;10.018;2024-01-15T03:27:59;4.60;95.30
16287;DHT22;8251;53.568;10.018;2024-01-15T03:30:26;4.60;95.20
16287;DHT22;8251;53.568;10.018;2024-01-15T03:32:54;4.60;95.30
16287;DHT22;8251;53.568;10.018;2024-01-15T03:35:30;4.60;95.30
16287;DHT22;8251;53.568;10.018;2024-01-15T03:37:58;4.80;95.20
16287;DHT22;8251;53.568;10.018;2024-01-15T03:40:24;4.70;95.20
16287;DHT22;8251;53.568;10.018;2024-01-15T03:42:51;4.70;95.10
16287;DHT22;8251;53.568;10.018;2024-01-15T03:45:18;4.70;95.00
16287;DHT22;8251;53.568;10.018;2024-01-15T03:47:45;4.70;95.00
16287;DHT22;8251;53.568;10.018;2024-01-15T03:50:14;4.60;95.00
16287;DHT22;8251;53.568;10.018;2024-01-15T03:52:42;4.60;94.90
16287;DHT22;8251;53.568;10.018;2024-01-15T03:55:09;4.70;95.30
16287;DHT22;8251;53.568;10.018;2024-01-15T03:57:36;4.60;94.90
16287;DHT22;8251;53.568;10.018;2024-01-15T04:00:07;4.60;95.30
16287;DHT22;8251;53.568;10.018;2024-01-15T04:02:34;4.70;94.90
16287;DHT22;8251;53.568;10.018;2024-01-15T04:05:02;4.70;94.90
16287;DHT22;8251;53.568;10.018;2024-01-15T04:07:31;4.70;94.90
16287;DHT22;8251;53.568;10.018;2024-01-15T04:09:58;4.70;94.80
16287;DHT22;8251;53.568;10.018;2024-01-15T04:12:25;4.70;94.80
16287;DHT22;8251;53.568;10.018;2024-01-15T04:14:52;4.70;94.70
16287;DHT22;8251;53.568;10.018;2024-01-15T04:17:19;4.80;94.70
16287;DHT22;8251;53.568;10.018;2024-01-15T04:19:54;4.70;94.60
16287;DHT22;8251;53.568;10.018;2024-01-15T04:22:21;4.70;94.60
16287;DHT22;8251;53.568;10.018;2024-01-15T04:24:49;4.80;94.50
16287;DHT22;8251;53.568;10.018;2024-01-15T04:27:16;4.80;94.30
16287;DHT22;8251;53.568;10.018;2024-01-15T04:29:43;4.80;94.20
16287;DHT22;8251;53.568;10.018;2024-01-15T04:32:11;4.80;94.20
16287;DHT22;8251;53.568;10.018;2024-01-15T04:34:37;4.90;94.20
16287;DHT22;8251;53.568;10.018;2024-01-15T04:37:04;4.90;94.00
16287;DHT22;8251;53.568;10.018;2024-01-15T04:39:32;4.90;93.90
16287;DHT22;8251;53.568;10.018;2024-01-15T04:42:02;4.90;94.10
16287;DHT22;8251;53.568;10.018;2024-01-15T04:44:36;4.90;93.80
16287;DHT22;8251;53.568;10.018;2024-01-15T04:47:05;4.90;93.80
16287;DHT22;8251;53.568;10.018;2024-01-15T04:49:31;5.10;93.80
16287;DHT22;8251;53.568;10.018;2024-01-15T04:51:58;5.00;93.80
16287;DHT22;8251;53.568;10.018;2024-01-15T04:54:25;5.00;93.70
16287;DHT22;8251;53.568;10.018;2024-01-15T04:56:52;5.00;93.70
16287;DHT22;8251;53.568;10.018;2024-01-15T04:59:20;5.00;93.70
16287;DHT22;8251;53.568;10.018;2024-01-15T05:01:50;5.00;93.70
16287;DHT22;8251;53.568;10.018;2024-01-15T05:04:17;5.00;93.70
16287;DHT22;8251;53.568;10.018;2024-01-15T05:06:44;5.10;93.80
16287;DHT22;8251;53.568;10.018;2024-01-15T05:09:11;5.00;93.70
16287;DHT22;8251;53.568;10.018;2024-01-15T05:11:38;5.00;93.60
16287;DHT22;8251;53.568;10.018;2024-01-15T05:14:05;5.00;93.70
16287;DHT22;8251;53.568;10.018;2024-01-15T05:16:39;4.90;93.60
16287;DHT22;8251;53.568;10.018;2024-01-15T05:19:07;4.90;93.50
16287;DHT22;8251;53.568;10.018;2024-01-15T05:21:34;5.00;93.60
16287;DHT22;8251;53.568;10.018;2024-01-15T05:24:01;4.80;93.40
16287;DHT22;8251;53.568;10.018;2024-01-15T05:26:28;4.90;93.50
16287;DHT22;8251;53.568;10.018;2024-01-15T05:28:55;4.90;93.60
16287;DHT22;8251;53.568;10.018;2024-01-15T05:31:22;4.90;93.50
16287;DHT22;8251;53.568;10.018;2024-01-15T05:33:50;4.80;93.70
16287;DHT22;8251;53.568;10.018;2024-01-15T05:36:18;4.80;93.70
16287;DHT22;8251;53.568;10.018;2024-01-15T05:38:45;4.80;93.70
16287;DHT22;8251;53.568;10.018;2024-01-15T05:41:12;4.80;93.70
16287;DHT22;8251;53.568;10.018;2024-01-15T05:43:39;4.80;93.70
16287;DHT22;8251;53.568;10.018;2024-01-15T05:46:06;4.80;93.90
16287;DHT22;8251;53.568;10.018;2024-01-15T05:48:33;4.80;93.90
16287;DHT22;8251;53.568;10.018;2024-01-15T05:51:01;4.80;94.00
16287;DHT22;8251;53.568;10.018;2024-01-15T05:53:29;4.80;93.90
16287;DHT22;8251;53.568;10.018;2024-01-15T05:55:55;4.80;93.90
16287;DHT22;8251;53.568;10.018;2024-01-15T05:58:22;4.70;94.00
16287;DHT22;8251;53.568;10.018;2024-01-15T06:00:49;4.70;94.00
16287;DHT22;8251;53.568;10.018;2024-01-15T06:03:16;4.70;94.00
16287;DHT22;8251;53.568;10.018;2024-01-15T06:05:43;4.70;94.00
16287;DHT22;8251;53.568;10.018;2024-01-15T06:08:11;4.70;94.10
16287;DHT22;8251;53.568;10.018;2024-01-15T06:10:41;4.70;94.00
16287;DHT22;8251;53.568;10.018;2024-01-15T06:13:09;4.70;94.00
16287;DHT22;8251;53.568;10.018;2024-01-15T06:15:38;4.70;94.20
16287;DHT22;8251;53.568;10.018;2024-01-15T06:18:06;4.80;94.10
16287;DHT22;8251;53.568;10.018;2024-01-15T06:20:35;4.80;94.20
16287;DHT22;8251;53.568;10.018;2024-01-15T06:23:02;4.70;94.50
16287;DHT22;8251;53.568;10.018;2024-01-15T06:25:32;4.70;94.20
16287;DHT22;8251;53.568;10.018;2024-01-15T06:27:59;4.70;94.20
16287;DHT22;8251;53.568;10.018;2024-01-15T06:30:26;4.80;94.20
16287;DHT22;8251;53.568;10.018;2024-01-15T06:32:53;4.80;94.30
16287;DHT22;8251;53.568;10.018;2024-01-15T06:35:21;4.80;94.20
16287;DHT22;8251;53.568;10.018;2024-01-15T06:37:47;4.80;94.20
16287;DHT22;8251;53.568;10.018;2024-01-15T06:40:14;4.80;94.20
16287;DHT22;8251;53.568;10.018;2024-01-15T06:42:44;4.90;94.30
16287;DHT22;8251;53.568;10.018;2024-01-15T06:45:11;4.90;94.20
16287;DHT22;8251;53.568;10.018;2024-01-15T06:47:38;4.90;94.10
16287;DHT22;8251;53.568;10.018;2024-01-15T06:50:05;4.90;94.10
16287;DHT22;8251;53.568;10.018;2024-01-15T06:52:32;4.90;94.10
16287;DHT22;8251;53.568;10.018;2024-01-15T06:54:59;5.00;94.20
16287;DHT22;8251;53.568;10.018;2024-01-15T06:57:26;5.00;93.90
16287;DHT22;8251;53.568;10.018;2024-01-15T06:59:56;4.90;93.80
16287;DHT22;8251;53.568;10.018;2024-01-15T07:02:23;5.00;93.80
16287;DHT22;8251;53.568;10.018;2024-01-15T07:04:51;4.90;93.80
16287;DHT22;8251;53.568;10.018;2024-01-15T07:07:18;5.00;93.70
16287;DHT22;8251;53.568;10.018;2024-01-15T07:09:45;5.00;93.60
16287;DHT22;8251;53.568;10.018;2024-01-15T07:12:12;4.70;93.50
16287;DHT22;8251;53.568;10.018;2024-01-15T07:14:38;5.00;93.60
16287;DHT22;8251;53.568;10.018;2024-01-15T07:17:07;5.00;93.60
16287;DHT22;8251;53.568;10.018;2024-01-15T07:19:33;5.00;93.40
16287;DHT22;8251;53.568;10.018;2024-01-15T07:22:00;4.90;93.50
16287;DHT22;8251;53.568;10.018;2024-01-15T07:24:27;4.90;93.40
16287;DHT22;8251;53.568;10.018;2024-01-15T07:26:54;5.00;93.50
16287;DHT22;8251;53.568;10.018;2024-01-15T07:29:21;5.00;93.40
16287;DHT22;8251;53.568;10.018;2024-01-15T07:31:49;5.00;93.40
16287;DHT22;8251;53.568;10.018;2024-01-15T07:34:17;5.00;93.20
16287;DHT22;8251;53.568;10.018;2024-01-15T07:36:46;5.10;93.00
16287;DHT22;8251;53.568;10.018;2024-01-15T07:39:13;5.10;93.00
16287;DHT22;8251;53.568;10.018;2024-01-15T07:41:40;5.10;92.80
16287;DHT22;8251;53.568;10.018;2024-01-15T07:44:07;5.10;92.60
16287;DHT22;8251;53.568;10.018;2024-01-15T07:46:34;5.10;92.50
16287;DHT22;8251;53.568;10.018;2024-01-15T07:49:01;5.20;92.50
16287;DHT22;8251;53.568;10.018;2024-01-15T07:51:29;5.20;92.40
16287;DHT22;8251;53.568;10.018;2024-01-15T07:53:56;5.20;92.20
16287;DHT22;8251;53.568;10.018;2024-01-15T07:56:23;5.30;92.10
16287;DHT22;8251;53.568;10.018;2024-01-15T07:58:50;5.40;91.90
16287;DHT22;8251;53.568;10.018;2024-01-15T08:01:16;5.30;91.80
16287;DHT22;8251;53.568;10.018;2024-01-15T08:03:43;5.30;91.80
16287;DHT22;8251;53.568;10.018;2024-01-15T08:06:10;5.30;91.80
16287;DHT22;8251;53.568;10.018;2024-01-15T08:08:39;5.30;91.80
16287;DHT22;8251;53.568;10.018;2024-01-15T08:11:07;5.40;91.70
16287;DHT22;8251;53.568;10.018;2024-01-15T08:13:34;5.30;91.60
16287;DHT22;8251;53.568;10.018;2024-01-15T08:16:00;5.40;91.70
16287;DHT22;8251;53.568;10.018;2024-01-15T08:18:28;5.40;91.80
16287;DHT22;8251;53.568;10.018;2024-01-15T08:20:56;5.40;91.80
16287;DHT22;8251;53.568;10.018;2024-01-15T08:23:26;5.40;91.80
16287;DHT22;8251;53.568;10.018;2024-01-15T08:25:58;5.40;91.80
16287;DHT22;8251;53.568;10.018;2024-01-15T08:28:26;5.40;91.80
16287;DHT22;8251;53.568;10.018;2024-01-15T08:30:53;5.40;91.80
16287;DHT22;8251;53.568;10.018;2024-01-15T08:33:20;5.40;91.90
16287;DHT22;8251;53.568;10.018;2024-01-15T08:35:47;5.40;92.00
16287;DHT22;8251;53.568;10.018;2024-01-15T08:38:13;5.40;92.10
16287;DHT22;8251;53.568;10.018;2024-01-15T08:40:40;5.40;92.10
16287;DHT22;8251;53.568;10.018;2024-01-15T08:43:15;5.60;92.20
16287;DHT22;8251;53.568;10.018;2024-01-15T08:45:44;5.30;92.30
16287;DHT22;8251;53.568;10.018;2024-01-15T08:48:15;5.30;92.30
16287;DHT22;8251;53.568;10.018;2024-01-15T08:50:56;5.20;92.30
16287;DHT22;8251;53.568;10.018;2024-01-15T08:53:23;5.20;92.50
16287;DHT22;8251;53.568;10.018;2024-01-15T08:55:51;5.10;92.60
16287;DHT22;8251;53.568;10.018;2024-01-15T08:58:19;5.10;92.70
16287;DHT22;8251;53.568;10.018;2024-01-15T09:00:46;5.10;92.80
16287;DHT22;8251;53.568;10.018;2024-01-15T09:03:12;5.10;92.90
16287;DHT22;8251;53.568;10.018;2024-01-15T09:05:40;5.10;93.00
16287;DHT22;8251;53.568;10.018;2024-01-15T09:08:08;5.10;93.00
16287;DHT22;8251;53.568;10.018;2024-01-15T09:10:35;5.00;93.00
16287;DHT22;8251;53.568;10.018;2024-01-15T09:13:03;5.00;93.20
16287;DHT22;8251;53.568;10.018;2024-01-15T09:15:31;4.90;93.70
16287;DHT22;8251;53.568;10.018;2024-01-15T09:17:58;4.90;93.40
16287;DHT22;8251;53.568;10.018;2024-01-15T09:20:27;4.90;93.50
16287;DHT22;8251;53.568;10.018;2024-01-15T09:22:54;4.90;93.60
16287;DHT22;8251;53.568;10.018;2024-01-15T09:25:24;4.90;93.40
16287;DHT22;8251;53.568;10.018;2024-01-15T09:27:51;4.90;93.80
16287;DHT22;8251;53.568;10.018;2024-01-15T09:30:18;4.90;93.80
16287;DHT22;8251;53.568;10.018;2024-01-15T09:32:47;4.90;93.80
16287;DHT22;8251;53.568;10.018;2024-01-15T09:35:14;5.10;93.80
16287;DHT22;8251;53.568;10.018;2024-01-15T09:37:41;5.00;93.70
16287;DHT22;8251;53.568;10.018;2024-01-15T09:40:09;5.00;94.10
16287;DHT22;8251;53.568;10.018;2024-01-15T09:42:40;5.10;93.80
16287;DHT22;8251;53.568;10.018;2024-01-15T09:45:08;5.10;93.90
16287;DHT22;8251;53.568;10.018;2024-01-15T09:47:36;5.20;93.80
16287;DHT22;8251;53.568;10.018;2024-01-15T09:50:06;5.20;93.50
16287;DHT22;8251;53.568;10.018;2024-01-15T09:52:34;5.20;93.50
16287;DHT22;8251;53.568;10.018;2024-01-15T09:55:09;5.10;93.60
16287;DHT22;8251;53.568;10.018;2024-01-15T09:57:43;5.10;93.50
16287;DHT22;8251;53.568;10.018;2024-01-15T10:00:13;5.20;93.50
16287;DHT22;8251;53.568;10.018;2024-01-15T10:02:41;5.00;93.50
16287;DHT22;8251;53.568;10.018;2024-01-15T10:05:11;5.00;93.50
16287;DHT22;8251;53.568;10.018;2024-01-15T10:07:38;4.90;93.70
16287;DHT22;8251;53.568;10.018;2024-01-15T10:10:10;4.80;93.60
16287;DHT22;8251;53.568;10.018;2024-01-15T10:12:39;4.80;93.70
16287;DHT22;8251;53.568;10.018;2024-01-15T10:15:09;4.80;93.70
16287;DHT22;8251;53.568;10.018;2024-01-15T10:17:38;4.50;93.80
16287;DHT22;8251;53.568;10.018;2024-01-15T10:20:10;4.70;94.00
16287;DHT22;8251;53.568;10.018;2024-01-15T10:22:40;4.70;94.00
16287;DHT22;8251;53.568;10.018;2024-01-15T10:25:11;4.80;94.00
16287;DHT22;8251;53.568;10.018;2024-01-15T10:27:42;4.80;94.00
16287;DHT22;8251;53.568;10.018;2024-01-15T10:30:09;4.80;94.10
16287;DHT22;8251;53.568;10.018;2024-01-15T10:32:40;4.80;94.10
16287;DHT22;8251;53.568;10.018;2024-01-15T10:35:12;4.80;94.10
16287;DHT22;8251;53.568;10.018;2024-01-15T10:37:41;4.80;94.10
16287;DHT22;8251;53.568;10.018;2024-01-15T10:40:08;4.80;94.10
16287;DHT22;8251;53.568;10.018;2024-01-15T10:42:36;4.80;94.30
16287;DHT22;8251;53.568;10.018;2024-01-15T10:45:04;4.80;94.30
16287;DHT22;8251;53.568;10.018;2024-01-15T10:47:31;4.80;94.20
16287;DHT22;8251;53.568;10.018;2024-01-15T10:49:58;4.80;94.10
16287;DHT22;8251;53.568;10.018;2024-01-15T10:52:27;4.80;94.10
16287;DHT22;8251;53.568;10.018;2024-01-15T10:54:55;4.80;94.10
16287;DHT22;8251;53.568;10.018;2024-01-15T10:57:23;4.70;94.20
16287;DHT22;8251;53.568;10.018;2024-01-15T10:59:52;4.70;94.30
16287;DHT22;8251;53.568;10.018;2024-01-15T11:02:19;4.60;94.40
16287;DHT22;8251;53.568;10.018;2024-01-15T11:04:46;4.60;94.50
16287;DHT22;8251;53.568;10.018;2024-01-15T11:07:13;4.60;94.40
16287;DHT22;8251;53.568;10.018;2024-01-15T11:09:41;4.60;94.50
16287;DHT22;8251;53.568;10.018;2024-01-15T11:12:10;4.60;94.60
16287;DHT22;8251;53.568;10.018;2024-01-15T11:14:41;4.60;94.60
16287;DHT22;8251;53.568;10.018;2024-01-15T11:17:09;4.60;94.70
16287;DHT22;8251;53.568;10.018;2024-01-15T11:19:37;4.60;94.60
16287;DHT22;8251;53.568;10.018;2024-01-15T11:22:07;4.70;94.60
16287;DHT22;8251;53.568;10.018;2024-01-15T11:24:38;4.80;94.60
16287;DHT22;8251;53.568;10.018;2024-01-15T11:27:08;4.70;94.50
16287;DHT22;8251;53.568;10.018;2024-01-15T11:29:36;4.70;94.60
16287;DHT22;8251;53.568;10.018;2024-01-15T11:32:04;4.70;94.60
16287;DHT22;8251;53.568;10.018;2024-01-15T11:34:52;4.80;94.50
16287;DHT22;8251;53.568;10.018;2024-01-15T11:37:20;4.80;94.50
16287;DHT22;8251;53.568;10.018;2024-01-15T11:39:54;4.80;94.50
16287;DHT22;8251;53.568;10.018;2024-01-15T11:42:23;4.80;94.50
16287;DHT22;8251;53.568;10.018;2024-01-15T11:44:50;4.90;94.60
16287;DHT22;8251;53.568;10.018;2024-01-15T11:47:36;4.90;94.60
16287;DHT22;8251;53.568;10.018;2024-01-15T11:50:07;4.90;94.50
16287;DHT22;8251;53.568;10.018;2024-01-15T11:52:38;4.90;94.50
16287;DHT22;8251;53.568;10.018;2024-01-15T11:55:11;4.90;94.50
16287;DHT22;8251;53.568;10.018;2024-01-15T11:57:46;5.00;94.40
16287;DHT22;8251;53.568;10.018;2024-01-15T12:00:14;5.00;94.40
16287;DHT22;8251;53.568;10.018;2024-01-15T12:02:41;5.00;94.70
16287;DHT22;8251;53.568;10.018;2024-01-15T12:05:09;4.90;94.20
16287;DHT22;8251;53.568;10.018;2024-01-15T12:07:38;5.00;94.30
16287;DHT22;8251;53.568;10.018;2024-01-15T12:10:09;5.00;94.30
16287;DHT22;8251;53.568;10.018;2024-01-15T12:12:57;5.00;94.40
16287;DHT22;8251;53.568;10.018;2024-01-15T12:15:26;5.00;94.20
16287;DHT22;8251;53.568;10.018;2024-01-15T12:17:56;5.00;93.70
16287;DHT22;8251;53.568;10.018;2024-01-15T12:20:27;5.00;94.00
16287;DHT22;8251;53.568;10.018;2024-01-15T12:22:55;4.90;94.10
16287;DHT22;8251;53.568;10.018;2024-01-15T12:25:22;4.90;94.30
16287;DHT22;8251;53.568;10.018;2024-01-15T12:27:52;4.80;94.30
16287;DHT22;8251;53.568;10.018;2024-01-15T12:30:20;4.80;94.30
16287;DHT22;8251;53.568;10.018;2024-01-15T12:32:48;4.90;94.10
16287;DHT22;8251;53.568;10.018;2024-01-15T12:35:15;4.90;94.20
16287;DHT22;8251;53.568;10.018;2024-01-15T12:37:43;4.90;94.20
16287;DHT22;8251;53.568;10.018;2024-01-15T12:40:12;4.90;94.10
16287;DHT22;8251;53.568;10.018;2024-01-15T12:42:40;4.90;94.10
16287;DHT22;8251;53.568;10.018;2024-01-15T12:45:09;4.90;94.10
16287;DHT22;8251;53.568;10.018;2024-01-15T12:47:37;4.80;94.00
16287;DHT22;8251;53.568;10.018;2024-01-15T12:50:06;4.80;94.00
16287;DHT22;8251;53.568;10.018;2024-01-15T12:52:33;4.80;94.10
16287;DHT22;8251;53.568;10.018;2024-01-15T12:55:06;4.90;94.20
16287;DHT22;8251;53.568;10.018;2024-01-15T12:57:33;4.90;94.20
16287;DHT22;8251;53.568;10.018;2024-01-15T13:00:00;4.90;94.20
16287;DHT22;8251;53.568;10.018;2024-01-15T13:02:33;4.90;94.20
16287;DHT22;8251;53.568;10.018;2024-01-15T13:05:01;4.90;94.20
16287;DHT22;8251;53.568;10.018;2024-01-15T13:07:29;5.00;94.00
16287;DHT22;8251;53.568;10.018;2024-01-15T13:09:56;5.00;94.00
16287;DHT22;8251;53.568;10.018;2024-01-15T13:12:25;5.00;93.90
16287;DHT22;8251;53.568;10.018;2024-01-15T13:14:52;5.00;94.00
16287;DHT22;8251;53.568;10.018;2024-01-15T13:17:19;5.00;93.90
16287;DHT22;8251;53.568;10.018;2024-01-15T13:19:48;5.10;93.90
16287;DHT22;8251;53.568;10.018;2024-01-15T13:22:15;5.10;93.90
16287;DHT22;8251;53.568;10.018;2024-01-15T13:24:42;5.10;93.80
16287;DHT22;8251;53.568;10.018;2024-01-15T13:27:09;5.00;93.80
16287;DHT22;8251;53.568;10.018;2024-01-15T13:29:37;5.10;93.80
16287;DHT22;8251;53.568;10.018;2024-01-15T13:32:05;5.10;93.70
16287;DHT22;8251;53.568;10.018;2024-01-15T13:34:33;5.20;93.60
16287;DHT22;8251;53.568;10.018;2024-01-15T13:37:02;5.20;93.60
16287;DHT22;8251;53.568;10.018;2024-01-15T13:39:29;5.20;93.50
16287;DHT22;8251;53.568;10.018;2024-01-15T13:41:58;5.20;93.50
16287;DHT22;8251;53.568;10.018;2024-01-15T13:44:25;5.20;93.30
16287;DHT22;8251;53.568;10.018;2024-01-15T13:46:53;5.20;93.30
16287;DHT22;8251;53.568;10.018;2024-01-15T13:49:20;5.20;93.30
16287;DHT22;8251;53.568;10.018;2024-01-15T13:51:46;5.20;93.20
16287;DHT22;8251;53.568;10.018;2024-01-15T13:54:15;5.10;93.20
16287;DHT22;8251;53.568;10.018;2024-01-15T13:56:41;5.10;93.20
16287;DHT22;8251;53.568;10.018;2024-01-15T13:59:08;5.10;93.20
16287;DHT22;8251;53.568;10.018;2024-01-15T14:01:35;5.10;93.30
16287;DHT22;8251;53.568;10.018;2024-01-15T14:04:02;5.10;93.30
16287;DHT22;8251;53.568;10.018;2024-01-15T14:06:29;5.10;93.20
16287;DHT22;8251;53.568;10.018;2024-01-15T14:08:56;5.10;93.20
16287;DHT22;8251;53.568;10.018;2024-01-15T14:11:24;5.10;93.10
16287;DHT22;8251;53.568;10.018;2024-01-15T14:13:51;5.10;93.10
16287;DHT22;8251;53.568;10.018;2024-01-15T14:16:18;5.10;93.10
16287;DHT22;8251;53.568;10.018;2024-01-15T14:18:45;5.10;93.10
16287;DHT22;8251;53.568;10.018;2024-01-15T14:21:11;5.20;93.10
16287;DHT22;8251;53.568;10.018;2024-01-15T14:23:38;5.20;93.10
16287;DHT22;8251;53.568;10.018;2024-01-15T14:26:05;5.20;93.40
16287;DHT22;8251;53.568;10.018;2024-01-15T14:28:34;5.20;93.00
16287;DHT22;8251;53.568;10.018;2024-01-15T14:31:01;5.10;92.90
16287;DHT22;8251;53.568;10.018;2024-01-15T14:33:28;5.10;92.90
16287;DHT22;8251;53.568;10.018;2024-01-15T14:35:55;5.10;93.00
16287;DHT22;8251;53.568;10.018;2024-01-15T14:38:22;5.10;93.00
16287;DHT22;8251;53.568;10.018;2024-01-15T14:40:49;5.00;93.00
16287;DHT22;8251;53.568;10.018;2024-01-15T14:43:16;5.10;93.00
16287;DHT22;8251;53.568;10.018;2024-01-15T14:45:44;5.00;93.00
16287;DHT22;8251;53.568;10.018;2024-01-15T14:48:11;5.00;93.00
16287;DHT22;8251;53.568;10.018;2024-01-15T14:50:39;5.00;93.00
16287;DHT22;8251;53.568;10.018;2024-01-15T14:53:06;5.00;92.90
16287;DHT22;8251;53.568;10.018;2024-01-15T14:55:33;5.00;92.90
16287;DHT22;8251;53.568;10.018;2024-01-15T14:57:59;4.90;92.80
16287;DHT22;8251;53.568;10.018;2024-01-15T15:00:26;4.90;92.90
16287;DHT22;8251;53.568;10.018;2024-01-15T15:02:55;4.90;93.00
16287;DHT22;8251;53.568;10.018;2024-01-15T15:05:22;4.90;93.00
16287;DHT22;8251;53.568;10.018;2024-01-15T15:07:48;4.90;93.00
16287;DHT22;8251;53.568;10.018;2024-01-15T15:10:15;4.90;93.00
16287;DHT22;8251;53.568;10.018;2024-01-15T15:12:42;4.80;93.00
16287;DHT22;8251;53.568;10.018;2024-01-15T15:15:09;4.80;93.00
16287;DHT22;8251;53.568;10.018;2024-01-15T15:17:37;4.80;93.10
16287;DHT22;8251;53.568;10.018;2024-01-15T15:20:07;4.80;93.10
16287;DHT22;8251;53.568;10.018;2024-01-15T15:22:34;4.80;93.10
16287;DHT22;8251;53.568;10.018;2024-01-15T15:25:01;4.80;92.90
16287;DHT22;8251;53.568;10.018;2024-01-15T15:27:28;4.80;93.00
16287;DHT22;8251;53.568;10.018;2024-01-15T15:29:55;4.80;93.00
16287;DHT22;8251;53.568;10.018;2024-01-15T15:32:21;4.70;93.00
16287;DHT22;8251;53.568;10.018;2024-01-15T15:34:49;4.70;93.00
16287;DHT22;8251;53.568;10.018;2024-01-15T15:37:17;4.70;93.00
16287;DHT22;8251;53.568;10.018;2024-01-15T15:39:44;4.70;93.00
16287;DHT22;8251;53.568;10.018;2024-01-15T15:42:10;4.60;93.00
16287;DHT22;8251;53.568;10.018;2024-01-15T15:44:39;4.60;93.10
16287;DHT22;8251;53.568;10.018;2024-01-15T15:47:12;4.60;93.10
16287;DHT22;8251;53.568;10.018;2024-01-15T15:49:39;4.60;93.10